| time (UTC) | temp F | wind direction | speed MPH | gust MPH | rain 1hr in | rain 24hr in | rain mn in | humidity % | barometer mb |
| 20260901000016 | 83 | 0.0 | 1.0 | 0.00 | 0.00 | 0.00 | 72 | 1018.4 | |
| 20260831234536 | 84 | 0.0 | 1.0 | 0.00 | 0.00 | 0.00 | 71 | 1018.2 | |
| 20260831233016 | 85 | 0.0 | 0.0 | 0.00 | 0.00 | 0.00 | 72 | 1018.3 | |
| 20260831231516 | 86 | 0.0 | 0.0 | 0.00 | 0.00 | 0.00 | 70 | 1018.3 | |
| 20260831230016 | 86 | 0.0 | 0.0 | 0.00 | 0.00 | 0.00 | 68 | 1018.2 | |
| 20260831224536 | 87 | 0.0 | 1.0 | 0.00 | 0.00 | 0.00 | 67 | 1018.1 | |
| 20260831223035 | 87 | 0.0 | 1.0 | 0.00 | 0.00 | 0.00 | 65 | 1018.2 | |
| 20260831221516 | 88 | 0.0 | 1.0 | 0.00 | 0.00 | 0.00 | 63 | 1018.3 | |
| 20260831220015 | 88 | 0.0 | 3.0 | 0.00 | 0.00 | 0.00 | 61 | 1018.3 | |
| 20260831214535 | 89 | 270 | 1.0 | 2.0 | 0.00 | 0.00 | 0.00 | 60 | 1018.2 |
| 20260831213015 | 89 | 0.0 | 1.0 | 0.00 | 0.00 | 0.00 | 59 | 1018.1 | |
| 20260831211535 | 89 | 225 | 1.0 | 3.0 | 0.00 | 0.00 | 0.00 | 61 | 1018.0 |
| 20260831210015 | 89 | 293 | 1.0 | 3.0 | 0.00 | 0.00 | 0.00 | 59 | 1018.0 |
| 20260831204515 | 89 | 293 | 1.0 | 3.0 | 0.00 | 0.00 | 0.00 | 60 | 1018.0 |
| 20260831203035 | 89 | 293 | 1.0 | 6.0 | 0.00 | 0.00 | 0.00 | 61 | 1018.1 |
| 20260831201515 | 89 | 315 | 1.0 | 4.0 | 0.00 | 0.00 | 0.00 | 61 | 1018.1 |
| 20260831200015 | 89 | 315 | 1.0 | 4.0 | 0.00 | 0.00 | 0.00 | 60 | 1018.2 |
| 20260831194515 | 89 | 270 | 1.0 | 3.0 | 0.00 | 0.00 | 0.00 | 61 | 1018.3 |
| 20260831193015 | 89 | 293 | 1.0 | 5.0 | 0.00 | 0.00 | 0.00 | 62 | 1018.4 |
| 20260831191517 | 89 | 293 | 1.0 | 5.0 | 0.00 | 0.00 | 0.00 | 63 | 1018.4 |
| 20260831190017 | 88 | 293 | 1.0 | 4.0 | 0.00 | 0.00 | 0.00 | 63 | 1018.7 |
| 20260831184517 | 88 | 315 | 2.0 | 6.0 | 0.00 | 0.00 | 0.00 | 61 | 1018.8 |
| 20260831183017 | 88 | 315 | 1.0 | 4.0 | 0.00 | 0.00 | 0.00 | 63 | 1018.9 |
| 20260831181517 | 88 | 293 | 2.0 | 4.0 | 0.00 | 0.00 | 0.00 | 62 | 1018.9 |
| 20260831180017 | 88 | 0 | 1.0 | 3.0 | 0.00 | 0.00 | 0.00 | 65 | 1019.1 |
| 20260831174517 | 88 | 315 | 1.0 | 4.0 | 0.00 | 0.00 | 0.00 | 65 | 1019.2 |
| 20260831173017 | 87 | 0.0 | 2.0 | 0.00 | 0.00 | 0.00 | 64 | 1019.3 | |
| 20260831171517 | 87 | 293 | 1.0 | 5.0 | 0.00 | 0.00 | 0.00 | 61 | 1019.3 |
| 20260831170017 | 88 | 248 | 1.0 | 3.0 | 0.00 | 0.00 | 0.00 | 65 | 1019.5 |
| 20260831164517 | 88 | 113 | 1.0 | 3.0 | 0.00 | 0.00 | 0.00 | 65 | 1019.5 |
| 20260831163017 | 88 | 315 | 1.0 | 3.0 | 0.00 | 0.00 | 0.00 | 64 | 1019.7 |
| 20260831161517 | 88 | 315 | 1.0 | 3.0 | 0.00 | 0.00 | 0.00 | 64 | 1019.8 |
| 20260831160017 | 88 | 315 | 1.0 | 4.0 | 0.00 | 0.00 | 0.00 | 66 | 1019.9 |
| 20260831154516 | 88 | 203 | 1.0 | 2.0 | 0.00 | 0.00 | 0.00 | 66 | 1019.9 |
| 20260831153037 | 86 | 203 | 1.0 | 3.0 | 0.00 | 0.00 | 0.00 | 69 | 1019.7 |
| 20260831151517 | 84 | 0.0 | 3.0 | 0.00 | 0.00 | 0.00 | 75 | 1019.8 | |
| 20260831150017 | 82 | 0.0 | 2.0 | 0.00 | 0.00 | 0.00 | 77 | 1019.7 | |
| 20260831144517 | 80 | 0.0 | 3.0 | 0.00 | 0.00 | 0.00 | 80 | 1019.8 | |
| 20260831143016 | 79 | 23 | 1.0 | 4.0 | 0.00 | 0.00 | 0.00 | 83 | 1019.9 |
| 20260831141517 | 78 | 315 | 1.0 | 3.0 | 0.00 | 0.00 | 0.00 | 85 | 1020.1 |
| 20260831140017 | 77 | 225 | 1.0 | 4.0 | 0.00 | 0.00 | 0.00 | 86 | 1020.0 |
| 20260831134516 | 76 | 315 | 1.0 | 4.0 | 0.00 | 0.00 | 0.00 | 87 | 1019.9 |
| 20260831133016 | 76 | 45 | 1.0 | 5.0 | 0.00 | 0.00 | 0.00 | 88 | 1020.0 |
| 20260831131516 | 75 | 270 | 1.0 | 5.0 | 0.00 | 0.00 | 0.00 | 91 | 1019.9 |
| 20260831130016 | 74 | 0.0 | 2.0 | 0.00 | 0.00 | 0.00 | 93 | 1019.8 | |
| 20260831124516 | 73 | 0.0 | 2.0 | 0.00 | 0.00 | 0.00 | 94 | 1019.9 | |
| 20260831123016 | 72 | 0.0 | 3.0 | 0.00 | 0.00 | 0.00 | 94 | 1019.8 | |
| 20260831121516 | 72 | 0.0 | 1.0 | 0.00 | 0.00 | 0.00 | 94 | 1019.8 | |
| 20260831120036 | 71 | 0.0 | 0.0 | 0.00 | 0.00 | 0.00 | 93 | 1019.7 | |
| 20260831114516 | 71 | 0.0 | 0.0 | 0.00 | 0.00 | 0.00 | 92 | 1019.5 | |
| 20260831113016 | 71 | 0.0 | 0.0 | 0.00 | 0.00 | 0.00 | 92 | 1019.5 | |
| 20260831111516 | 71 | 0.0 | 0.0 | 0.00 | 0.00 | 0.00 | 92 | 1019.1 | |
| 20260831110016 | 71 | 0.0 | 0.0 | 0.00 | 0.00 | 0.00 | 91 | 1019.2 | |
| 20260831104516 | 72 | 0.0 | 0.0 | 0.00 | 0.00 | 0.00 | 91 | 1019.1 | |
| 20260831103016 | 72 | 0.0 | 0.0 | 0.00 | 0.00 | 0.00 | 91 | 1019.2 | |
| 20260831101516 | 72 | 0.0 | 0.0 | 0.00 | 0.00 | 0.00 | 91 | 1019.1 | |
| 20260831100016 | 72 | 0.0 | 0.0 | 0.00 | 0.00 | 0.00 | 91 | 1018.8 | |
| 20260831094516 | 72 | 0.0 | 0.0 | 0.00 | 0.00 | 0.00 | 90 | 1018.8 | |
| 20260831093016 | 72 | 0.0 | 0.0 | 0.00 | 0.00 | 0.00 | 90 | 1018.7 | |
| 20260831091516 | 73 | 0.0 | 0.0 | 0.00 | 0.00 | 0.00 | 90 | 1018.8 | |
| 20260831090036 | 73 | 0.0 | 0.0 | 0.00 | 0.00 | 0.00 | 90 | 1018.8 | |
| 20260831084516 | 73 | 0.0 | 0.0 | 0.00 | 0.00 | 0.00 | 90 | 1018.9 | |
| 20260831083016 | 73 | 0.0 | 0.0 | 0.00 | 0.00 | 0.00 | 90 | 1018.9 | |
| 20260831081516 | 73 | 0.0 | 0.0 | 0.00 | 0.00 | 0.00 | 90 | 1018.8 | |
| 20260831080016 | 73 | 0.0 | 0.0 | 0.00 | 0.00 | 0.00 | 90 | 1018.7 | |
| 20260831074536 | 73 | 0.0 | 0.0 | 0.00 | 0.00 | 0.00 | 90 | 1018.7 | |
| 20260831073015 | 73 | 0.0 | 0.0 | 0.00 | 0.00 | 0.00 | 89 | 1018.6 | |
| 20260831071535 | 73 | 0.0 | 0.0 | 0.00 | 0.00 | 0.00 | 89 | 1018.7 | |
| 20260831070016 | 73 | 0.0 | 0.0 | 0.00 | 0.00 | 0.00 | 89 | 1018.9 | |
| 20260831064516 | 73 | 0.0 | 0.0 | 0.00 | 0.00 | 0.00 | 89 | 1018.8 | |
| 20260831063016 | 74 | 0.0 | 0.0 | 0.00 | 0.00 | 0.00 | 89 | 1018.9 | |
| 20260831061536 | 74 | 0.0 | 0.0 | 0.00 | 0.00 | 0.00 | 89 | 1019.0 | |
| 20260831060015 | 74 | 0.0 | 0.0 | 0.00 | 0.00 | 0.00 | 88 | 1019.0 | |
| 20260831054516 | 74 | 0.0 | 0.0 | 0.00 | 0.00 | 0.00 | 88 | 1019.1 | |
| 20260831053015 | 75 | 0.0 | 0.0 | 0.00 | 0.00 | 0.00 | 88 | 1019.3 | |
| 20260831051515 | 75 | 0.0 | 0.0 | 0.00 | 0.00 | 0.00 | 88 | 1019.4 | |
| 20260831050015 | 75 | 0.0 | 0.0 | 0.00 | 0.00 | 0.00 | 87 | 1019.5 | |
| 20260831044515 | 76 | 0.0 | 0.0 | 0.00 | 0.00 | 0.00 | 87 | 1019.6 | |
| 20260831043015 | 76 | 0.0 | 0.0 | 0.00 | 0.00 | 0.00 | 86 | 1019.7 | |
| 20260831041535 | 76 | 0.0 | 0.0 | 0.00 | 0.00 | 0.00 | 86 | 1019.7 | |
| 20260831040015 | 76 | 0.0 | 0.0 | 0.00 | 0.00 | 0.00 | 86 | 1019.7 | |
| 20260831034516 | 76 | 0.0 | 0.0 | 0.00 | 0.00 | 0.00 | 86 | 1019.7 | |
| 20260831033016 | 76 | 0.0 | 0.0 | 0.00 | 0.00 | 0.00 | 86 | 1019.8 | |
| 20260831031536 | 76 | 0.0 | 0.0 | 0.00 | 0.00 | 0.00 | 85 | 1019.8 | |
| 20260831030016 | 77 | 0.0 | 0.0 | 0.00 | 0.00 | 0.00 | 85 | 1019.9 | |
| 20260831024516 | 77 | 0.0 | 0.0 | 0.00 | 0.00 | 0.00 | 85 | 1019.8 | |
| 20260831023016 | 77 | 0.0 | 0.0 | 0.00 | 0.00 | 0.00 | 85 | 1019.8 | |
| 20260831021516 | 77 | 0.0 | 0.0 | 0.00 | 0.00 | 0.00 | 84 | 1019.8 | |
| 20260831020056 | 77 | 0.0 | 0.0 | 0.00 | 0.00 | 0.00 | 84 | 1019.8 | |
| 20260831014556 | 77 | 0.0 | 1.0 | 0.00 | 0.00 | 0.00 | 82 | 1019.9 | |
| 20260831013016 | 78 | 0.0 | 0.0 | 0.00 | 0.00 | 0.00 | 82 | 1019.9 | |
| 20260831011515 | 78 | 0.0 | 0.0 | 0.00 | 0.00 | 0.00 | 80 | 1020.0 | |
| 20260831010016 | 79 | 0.0 | 1.0 | 0.00 | 0.00 | 0.00 | 80 | 1019.9 | |
| 20260831004536 | 80 | 0.0 | 0.0 | 0.00 | 0.00 | 0.00 | 78 | 1019.7 | |
| 20260831003016 | 80 | 0.0 | 0.0 | 0.00 | 0.00 | 0.00 | 77 | 1019.3 | |
| 20260831001516 | 81 | 0.0 | 0.0 | 0.00 | 0.00 | 0.00 | 76 | 1019.1 |